sensor_id;sensor_type;location;lat;lon;timestamp;P1;durP1;ratioP1;P2;durP2;ratioP2
9968;SDS011;5025;48.890;9.278;2022-10-20T00:01:18;7.10;;;6.40;;
9968;SDS011;5025;48.890;9.278;2022-10-20T00:03:46;6.07;;;5.60;;
9968;SDS011;5025;48.890;9.278;2022-10-20T00:06:15;5.87;;;5.47;;
9968;SDS011;5025;48.890;9.278;2022-10-20T00:08:43;6.33;;;5.83;;
9968;SDS011;5025;48.890;9.278;2022-10-20T00:11:09;6.07;;;5.60;;
9968;SDS011;5025;48.890;9.278;2022-10-20T00:13:36;5.97;;;5.47;;
9968;SDS011;5025;48.890;9.278;2022-10-20T00:16:02;6.07;;;5.57;;
9968;SDS011;5025;48.890;9.278;2022-10-20T00:18:29;5.77;;;4.90;;
9968;SDS011;5025;48.890;9.278;2022-10-20T00:20:54;6.20;;;5.60;;
9968;SDS011;5025;48.890;9.278;2022-10-20T00:23:20;6.23;;;5.73;;
9968;SDS011;5025;48.890;9.278;2022-10-20T00:25:46;5.80;;;5.40;;
9968;SDS011;5025;48.890;9.278;2022-10-20T00:28:11;6.17;;;5.77;;
9968;SDS011;5025;48.890;9.278;2022-10-20T00:30:37;6.43;;;5.80;;
9968;SDS011;5025;48.890;9.278;2022-10-20T00:33:03;6.00;;;5.60;;
9968;SDS011;5025;48.890;9.278;2022-10-20T00:35:29;6.37;;;5.87;;
9968;SDS011;5025;48.890;9.278;2022-10-20T00:37:56;6.50;;;5.90;;
9968;SDS011;5025;48.890;9.278;2022-10-20T00:40:21;6.30;;;5.80;;
9968;SDS011;5025;48.890;9.278;2022-10-20T00:42:48;6.47;;;5.97;;
9968;SDS011;5025;48.890;9.278;2022-10-20T00:45:15;6.43;;;5.83;;
9968;SDS011;5025;48.890;9.278;2022-10-20T00:47:44;6.30;;;5.80;;
9968;SDS011;5025;48.890;9.278;2022-10-20T00:50:17;7.10;;;6.50;;
9968;SDS011;5025;48.890;9.278;2022-10-20T00:52:52;6.03;;;5.53;;
9968;SDS011;5025;48.890;9.278;2022-10-20T00:55:21;5.73;;;5.23;;
9968;SDS011;5025;48.890;9.278;2022-10-20T00:57:51;6.27;;;5.77;;
9968;SDS011;5025;48.890;9.278;2022-10-20T01:00:18;6.70;;;6.20;;
9968;SDS011;5025;48.890;9.278;2022-10-20T01:02:44;6.10;;;5.63;;
9968;SDS011;5025;48.890;9.278;2022-10-20T01:05:10;6.70;;;6.20;;
9968;SDS011;5025;48.890;9.278;2022-10-20T01:07:35;6.40;;;5.90;;
9968;SDS011;5025;48.890;9.278;2022-10-20T01:10:01;6.00;;;5.50;;
9968;SDS011;5025;48.890;9.278;2022-10-20T01:15:31;6.37;;;5.80;;
9968;SDS011;5025;48.890;9.278;2022-10-20T01:23:56;6.50;;;6.00;;
9968;SDS011;5025;48.890;9.278;2022-10-20T01:29:24;6.43;;;5.93;;
9968;SDS011;5025;48.890;9.278;2022-10-20T01:31:59;6.70;;;6.20;;
9968;SDS011;5025;48.890;9.278;2022-10-20T01:34:29;6.73;;;6.23;;
9968;SDS011;5025;48.890;9.278;2022-10-20T01:37:04;6.53;;;6.03;;
9968;SDS011;5025;48.890;9.278;2022-10-20T01:39:52;6.60;;;6.10;;
9968;SDS011;5025;48.890;9.278;2022-10-20T01:42:23;6.77;;;6.17;;
9968;SDS011;5025;48.890;9.278;2022-10-20T01:44:50;6.53;;;6.03;;
9968;SDS011;5025;48.890;9.278;2022-10-20T01:47:21;7.43;;;6.73;;
9968;SDS011;5025;48.890;9.278;2022-10-20T01:49:50;6.33;;;5.93;;
9968;SDS011;5025;48.890;9.278;2022-10-20T01:52:16;7.10;;;6.40;;
9968;SDS011;5025;48.890;9.278;2022-10-20T01:54:42;7.10;;;6.43;;
9968;SDS011;5025;48.890;9.278;2022-10-20T02:00:05;7.20;;;6.60;;
9968;SDS011;5025;48.890;9.278;2022-10-20T02:05:34;7.03;;;6.47;;
9968;SDS011;5025;48.890;9.278;2022-10-20T02:08:06;6.77;;;6.20;;
9968;SDS011;5025;48.890;9.278;2022-10-20T02:10:51;7.60;;;6.80;;
9968;SDS011;5025;48.890;9.278;2022-10-20T02:13:20;7.07;;;6.47;;
9968;SDS011;5025;48.890;9.278;2022-10-20T02:15:49;6.77;;;6.27;;
9968;SDS011;5025;48.890;9.278;2022-10-20T02:18:18;7.53;;;6.93;;
9968;SDS011;5025;48.890;9.278;2022-10-20T02:20:49;7.50;;;6.87;;
9968;SDS011;5025;48.890;9.278;2022-10-20T02:23:16;7.57;;;6.80;;
9968;SDS011;5025;48.890;9.278;2022-10-20T02:25:42;7.70;;;7.00;;
9968;SDS011;5025;48.890;9.278;2022-10-20T02:28:09;7.33;;;6.73;;
9968;SDS011;5025;48.890;9.278;2022-10-20T02:30:36;7.33;;;6.73;;
9968;SDS011;5025;48.890;9.278;2022-10-20T02:33:03;7.17;;;6.57;;
9968;SDS011;5025;48.890;9.278;2022-10-20T02:35:29;7.20;;;6.60;;
9968;SDS011;5025;48.890;9.278;2022-10-20T02:37:56;7.10;;;6.50;;
9968;SDS011;5025;48.890;9.278;2022-10-20T02:40:22;6.67;;;6.10;;
9968;SDS011;5025;48.890;9.278;2022-10-20T02:42:48;6.50;;;6.00;;
9968;SDS011;5025;48.890;9.278;2022-10-20T02:45:13;7.03;;;6.43;;
9968;SDS011;5025;48.890;9.278;2022-10-20T02:47:39;6.90;;;6.30;;
9968;SDS011;5025;48.890;9.278;2022-10-20T02:50:05;6.90;;;6.30;;
9968;SDS011;5025;48.890;9.278;2022-10-20T02:52:32;8.10;;;7.40;;
9968;SDS011;5025;48.890;9.278;2022-10-20T02:54:57;7.30;;;6.70;;
9968;SDS011;5025;48.890;9.278;2022-10-20T02:57:23;7.53;;;6.93;;
9968;SDS011;5025;48.890;9.278;2022-10-20T02:59:48;7.07;;;6.47;;
9968;SDS011;5025;48.890;9.278;2022-10-20T03:02:13;7.17;;;6.57;;
9968;SDS011;5025;48.890;9.278;2022-10-20T03:04:39;7.17;;;6.57;;
9968;SDS011;5025;48.890;9.278;2022-10-20T03:07:04;7.33;;;6.73;;
9968;SDS011;5025;48.890;9.278;2022-10-20T03:09:29;7.73;;;7.03;;
9968;SDS011;5025;48.890;9.278;2022-10-20T03:11:55;7.30;;;6.60;;
9968;SDS011;5025;48.890;9.278;2022-10-20T03:14:20;7.57;;;6.87;;
9968;SDS011;5025;48.890;9.278;2022-10-20T03:16:45;7.33;;;6.63;;
9968;SDS011;5025;48.890;9.278;2022-10-20T03:19:11;7.77;;;7.10;;
9968;SDS011;5025;48.890;9.278;2022-10-20T03:21:36;7.47;;;6.87;;
9968;SDS011;5025;48.890;9.278;2022-10-20T03:24:02;8.20;;;7.50;;
9968;SDS011;5025;48.890;9.278;2022-10-20T03:26:27;8.07;;;7.27;;
9968;SDS011;5025;48.890;9.278;2022-10-20T03:28:53;7.80;;;7.10;;
9968;SDS011;5025;48.890;9.278;2022-10-20T03:31:18;7.23;;;6.63;;
9968;SDS011;5025;48.890;9.278;2022-10-20T03:33:43;7.60;;;7.00;;
9968;SDS011;5025;48.890;9.278;2022-10-20T03:36:09;7.80;;;7.10;;
9968;SDS011;5025;48.890;9.278;2022-10-20T03:38:34;7.43;;;6.87;;
9968;SDS011;5025;48.890;9.278;2022-10-20T03:40:59;7.73;;;7.03;;
9968;SDS011;5025;48.890;9.278;2022-10-20T03:43:25;8.17;;;7.47;;
9968;SDS011;5025;48.890;9.278;2022-10-20T03:45:59;8.37;;;7.57;;
9968;SDS011;5025;48.890;9.278;2022-10-20T03:48:26;8.53;;;7.83;;
9968;SDS011;5025;48.890;9.278;2022-10-20T03:50:51;7.97;;;7.27;;
9968;SDS011;5025;48.890;9.278;2022-10-20T03:53:17;8.03;;;7.33;;
9968;SDS011;5025;48.890;9.278;2022-10-20T03:55:42;8.10;;;7.40;;
9968;SDS011;5025;48.890;9.278;2022-10-20T03:58:07;8.20;;;7.50;;
9968;SDS011;5025;48.890;9.278;2022-10-20T04:00:33;7.37;;;6.80;;
9968;SDS011;5025;48.890;9.278;2022-10-20T04:02:58;8.30;;;7.63;;
9968;SDS011;5025;48.890;9.278;2022-10-20T04:05:23;7.60;;;6.90;;
9968;SDS011;5025;48.890;9.278;2022-10-20T04:07:48;7.67;;;6.97;;
9968;SDS011;5025;48.890;9.278;2022-10-20T04:10:14;7.67;;;6.97;;
9968;SDS011;5025;48.890;9.278;2022-10-20T04:12:40;8.47;;;7.47;;
9968;SDS011;5025;48.890;9.278;2022-10-20T04:15:06;8.93;;;8.03;;
9968;SDS011;5025;48.890;9.278;2022-10-20T04:17:32;8.80;;;8.00;;
9968;SDS011;5025;48.890;9.278;2022-10-20T04:19:57;12.20;;;8.93;;
9968;SDS011;5025;48.890;9.278;2022-10-20T04:22:23;9.80;;;8.80;;
9968;SDS011;5025;48.890;9.278;2022-10-20T04:24:48;10.40;;;9.30;;
9968;SDS011;5025;48.890;9.278;2022-10-20T04:27:13;9.53;;;8.63;;
9968;SDS011;5025;48.890;9.278;2022-10-20T04:29:39;9.90;;;8.77;;
9968;SDS011;5025;48.890;9.278;2022-10-20T04:32:04;10.10;;;9.07;;
9968;SDS011;5025;48.890;9.278;2022-10-20T04:34:30;8.70;;;7.80;;
9968;SDS011;5025;48.890;9.278;2022-10-20T04:36:56;8.80;;;7.90;;
9968;SDS011;5025;48.890;9.278;2022-10-20T04:39:21;8.43;;;7.70;;
9968;SDS011;5025;48.890;9.278;2022-10-20T04:41:47;7.80;;;7.10;;
9968;SDS011;5025;48.890;9.278;2022-10-20T04:44:12;8.53;;;7.60;;
9968;SDS011;5025;48.890;9.278;2022-10-20T04:46:37;8.00;;;7.20;;
9968;SDS011;5025;48.890;9.278;2022-10-20T04:49:03;8.20;;;7.40;;
9968;SDS011;5025;48.890;9.278;2022-10-20T04:51:29;8.37;;;7.57;;
9968;SDS011;5025;48.890;9.278;2022-10-20T04:53:54;8.50;;;7.70;;
9968;SDS011;5025;48.890;9.278;2022-10-20T04:56:20;8.53;;;7.73;;
9968;SDS011;5025;48.890;9.278;2022-10-20T04:58:51;8.60;;;7.77;;
9968;SDS011;5025;48.890;9.278;2022-10-20T05:01:19;8.57;;;7.67;;
9968;SDS011;5025;48.890;9.278;2022-10-20T05:03:45;9.90;;;8.33;;
9968;SDS011;5025;48.890;9.278;2022-10-20T05:08:41;8.90;;;8.07;;
9968;SDS011;5025;48.890;9.278;2022-10-20T05:11:08;8.53;;;7.70;;
9968;SDS011;5025;48.890;9.278;2022-10-20T05:13:35;8.40;;;7.60;;
9968;SDS011;5025;48.890;9.278;2022-10-20T05:16:00;7.77;;;7.07;;
9968;SDS011;5025;48.890;9.278;2022-10-20T05:18:25;8.67;;;7.87;;
9968;SDS011;5025;48.890;9.278;2022-10-20T05:20:52;8.53;;;7.73;;
9968;SDS011;5025;48.890;9.278;2022-10-20T05:23:17;9.07;;;8.17;;
9968;SDS011;5025;48.890;9.278;2022-10-20T05:25:42;8.17;;;7.47;;
9968;SDS011;5025;48.890;9.278;2022-10-20T05:28:08;8.40;;;7.60;;
9968;SDS011;5025;48.890;9.278;2022-10-20T05:30:33;8.30;;;7.50;;
9968;SDS011;5025;48.890;9.278;2022-10-20T05:32:59;8.33;;;7.53;;
9968;SDS011;5025;48.890;9.278;2022-10-20T05:35:26;9.03;;;8.10;;
9968;SDS011;5025;48.890;9.278;2022-10-20T05:37:52;8.10;;;7.40;;
9968;SDS011;5025;48.890;9.278;2022-10-20T05:40:18;7.90;;;7.20;;
9968;SDS011;5025;48.890;9.278;2022-10-20T05:42:43;7.43;;;6.73;;
9968;SDS011;5025;48.890;9.278;2022-10-20T05:45:08;7.20;;;6.60;;
9968;SDS011;5025;48.890;9.278;2022-10-20T05:47:34;7.40;;;6.73;;
9968;SDS011;5025;48.890;9.278;2022-10-20T05:49:59;6.97;;;6.27;;
9968;SDS011;5025;48.890;9.278;2022-10-20T05:52:24;7.07;;;6.37;;
9968;SDS011;5025;48.890;9.278;2022-10-20T05:54:50;7.20;;;6.53;;
9968;SDS011;5025;48.890;9.278;2022-10-20T05:57:15;6.67;;;6.07;;
9968;SDS011;5025;48.890;9.278;2022-10-20T05:59:41;7.10;;;6.50;;
9968;SDS011;5025;48.890;9.278;2022-10-20T06:02:07;6.53;;;6.03;;
9968;SDS011;5025;48.890;9.278;2022-10-20T06:04:34;6.17;;;5.67;;
9968;SDS011;5025;48.890;9.278;2022-10-20T06:06:59;6.60;;;6.00;;
9968;SDS011;5025;48.890;9.278;2022-10-20T06:09:25;6.47;;;5.97;;
9968;SDS011;5025;48.890;9.278;2022-10-20T06:11:50;6.80;;;6.20;;
9968;SDS011;5025;48.890;9.278;2022-10-20T06:14:16;6.47;;;5.87;;
9968;SDS011;5025;48.890;9.278;2022-10-20T06:16:42;6.07;;;5.57;;
9968;SDS011;5025;48.890;9.278;2022-10-20T06:19:08;5.50;;;5.10;;
9968;SDS011;5025;48.890;9.278;2022-10-20T06:21:35;5.50;;;5.10;;
9968;SDS011;5025;48.890;9.278;2022-10-20T06:24:01;6.03;;;5.53;;
9968;SDS011;5025;48.890;9.278;2022-10-20T06:26:29;5.57;;;5.10;;
9968;SDS011;5025;48.890;9.278;2022-10-20T06:29:00;6.20;;;5.70;;
9968;SDS011;5025;48.890;9.278;2022-10-20T06:31:27;6.20;;;5.70;;
9968;SDS011;5025;48.890;9.278;2022-10-20T06:33:53;5.47;;;5.07;;
9968;SDS011;5025;48.890;9.278;2022-10-20T06:36:19;6.03;;;5.53;;
9968;SDS011;5025;48.890;9.278;2022-10-20T06:38:46;5.63;;;5.20;;
9968;SDS011;5025;48.890;9.278;2022-10-20T06:41:13;5.90;;;5.40;;
9968;SDS011;5025;48.890;9.278;2022-10-20T06:43:40;5.50;;;5.00;;
9968;SDS011;5025;48.890;9.278;2022-10-20T06:46:07;6.20;;;5.70;;
9968;SDS011;5025;48.890;9.278;2022-10-20T06:48:35;5.70;;;5.20;;
9968;SDS011;5025;48.890;9.278;2022-10-20T06:51:01;5.47;;;5.07;;
9968;SDS011;5025;48.890;9.278;2022-10-20T06:53:29;5.07;;;4.67;;
9968;SDS011;5025;48.890;9.278;2022-10-20T06:55:58;5.27;;;4.87;;
9968;SDS011;5025;48.890;9.278;2022-10-20T06:58:25;5.17;;;4.87;;
9968;SDS011;5025;48.890;9.278;2022-10-20T07:00:58;5.37;;;4.87;;
9968;SDS011;5025;48.890;9.278;2022-10-20T07:03:25;6.67;;;5.43;;
9968;SDS011;5025;48.890;9.278;2022-10-20T07:05:51;9.43;;;6.37;;
9968;SDS011;5025;48.890;9.278;2022-10-20T07:08:16;12.30;;;8.40;;
9968;SDS011;5025;48.890;9.278;2022-10-20T07:10:42;12.43;;;8.77;;
9968;SDS011;5025;48.890;9.278;2022-10-20T07:13:07;17.17;;;9.40;;
9968;SDS011;5025;48.890;9.278;2022-10-20T07:15:32;8.93;;;8.00;;
9968;SDS011;5025;48.890;9.278;2022-10-20T07:17:58;9.13;;;7.97;;
9968;SDS011;5025;48.890;9.278;2022-10-20T07:20:23;8.17;;;7.37;;
9968;SDS011;5025;48.890;9.278;2022-10-20T07:22:48;7.73;;;6.93;;
9968;SDS011;5025;48.890;9.278;2022-10-20T07:25:14;9.53;;;7.60;;
9968;SDS011;5025;48.890;9.278;2022-10-20T07:27:39;7.60;;;6.90;;
9968;SDS011;5025;48.890;9.278;2022-10-20T07:30:04;7.90;;;7.03;;
9968;SDS011;5025;48.890;9.278;2022-10-20T07:32:30;6.83;;;6.17;;
9968;SDS011;5025;48.890;9.278;2022-10-20T07:34:55;6.30;;;5.80;;
9968;SDS011;5025;48.890;9.278;2022-10-20T07:37:21;6.10;;;5.60;;
9968;SDS011;5025;48.890;9.278;2022-10-20T07:39:46;5.67;;;5.27;;
9968;SDS011;5025;48.890;9.278;2022-10-20T07:42:11;5.57;;;5.17;;
9968;SDS011;5025;48.890;9.278;2022-10-20T07:44:37;5.30;;;4.90;;
9968;SDS011;5025;48.890;9.278;2022-10-20T07:47:02;4.63;;;4.33;;
9968;SDS011;5025;48.890;9.278;2022-10-20T07:49:28;7.50;;;6.90;;
9968;SDS011;5025;48.890;9.278;2022-10-20T07:51:53;6.80;;;6.20;;
9968;SDS011;5025;48.890;9.278;2022-10-20T07:54:18;6.27;;;5.77;;
9968;SDS011;5025;48.890;9.278;2022-10-20T07:56:44;5.73;;;5.33;;
9968;SDS011;5025;48.890;9.278;2022-10-20T07:59:10;5.50;;;5.10;;
9968;SDS011;5025;48.890;9.278;2022-10-20T08:01:35;5.23;;;4.83;;
9968;SDS011;5025;48.890;9.278;2022-10-20T08:04:01;5.27;;;4.87;;
9968;SDS011;5025;48.890;9.278;2022-10-20T08:06:27;4.40;;;4.10;;
9968;SDS011;5025;48.890;9.278;2022-10-20T08:08:53;4.37;;;4.07;;
9968;SDS011;5025;48.890;9.278;2022-10-20T08:11:19;4.00;;;3.80;;
9968;SDS011;5025;48.890;9.278;2022-10-20T08:13:45;4.20;;;3.90;;
9968;SDS011;5025;48.890;9.278;2022-10-20T08:16:11;4.43;;;4.13;;
9968;SDS011;5025;48.890;9.278;2022-10-20T08:18:37;4.10;;;3.80;;
9968;SDS011;5025;48.890;9.278;2022-10-20T08:21:11;3.90;;;3.70;;
9968;SDS011;5025;48.890;9.278;2022-10-20T08:23:39;3.50;;;3.30;;
9968;SDS011;5025;48.890;9.278;2022-10-20T08:26:05;3.63;;;3.43;;
9968;SDS011;5025;48.890;9.278;2022-10-20T08:28:31;3.73;;;3.53;;
9968;SDS011;5025;48.890;9.278;2022-10-20T08:30:57;3.47;;;3.27;;
9968;SDS011;5025;48.890;9.278;2022-10-20T08:33:25;3.43;;;3.23;;
9968;SDS011;5025;48.890;9.278;2022-10-20T08:35:50;3.47;;;3.27;;
9968;SDS011;5025;48.890;9.278;2022-10-20T08:38:16;3.57;;;3.27;;
9968;SDS011;5025;48.890;9.278;2022-10-20T08:40:41;3.43;;;3.23;;
9968;SDS011;5025;48.890;9.278;2022-10-20T08:43:15;3.40;;;3.20;;
9968;SDS011;5025;48.890;9.278;2022-10-20T08:45:42;3.10;;;3.00;;
9968;SDS011;5025;48.890;9.278;2022-10-20T08:48:11;3.13;;;2.97;;
9968;SDS011;5025;48.890;9.278;2022-10-20T08:50:43;3.37;;;3.17;;
9968;SDS011;5025;48.890;9.278;2022-10-20T08:53:10;3.00;;;2.90;;
9968;SDS011;5025;48.890;9.278;2022-10-20T08:55:36;3.47;;;3.13;;
9968;SDS011;5025;48.890;9.278;2022-10-20T08:58:09;3.20;;;3.07;;
9968;SDS011;5025;48.890;9.278;2022-10-20T09:00:38;3.50;;;3.30;;
9968;SDS011;5025;48.890;9.278;2022-10-20T09:03:15;3.20;;;3.00;;
9968;SDS011;5025;48.890;9.278;2022-10-20T09:05:42;3.53;;;3.33;;
9968;SDS011;5025;48.890;9.278;2022-10-20T09:08:10;3.33;;;3.13;;
9968;SDS011;5025;48.890;9.278;2022-10-20T09:10:37;3.40;;;3.20;;
9968;SDS011;5025;48.890;9.278;2022-10-20T09:13:07;4.30;;;4.00;;
9968;SDS011;5025;48.890;9.278;2022-10-20T09:15:41;4.07;;;3.77;;
9968;SDS011;5025;48.890;9.278;2022-10-20T09:18:09;3.70;;;3.40;;
9968;SDS011;5025;48.890;9.278;2022-10-20T09:20:43;3.83;;;3.53;;
9968;SDS011;5025;48.890;9.278;2022-10-20T09:23:15;4.03;;;3.73;;
9968;SDS011;5025;48.890;9.278;2022-10-20T09:25:43;3.90;;;3.60;;
9968;SDS011;5025;48.890;9.278;2022-10-20T09:28:19;3.90;;;3.70;;
9968;SDS011;5025;48.890;9.278;2022-10-20T09:30:47;3.33;;;3.03;;
9968;SDS011;5025;48.890;9.278;2022-10-20T09:33:25;3.10;;;3.00;;
9968;SDS011;5025;48.890;9.278;2022-10-20T09:38:54;3.17;;;2.97;;
9968;SDS011;5025;48.890;9.278;2022-10-20T09:41:20;3.50;;;3.30;;
9968;SDS011;5025;48.890;9.278;2022-10-20T09:43:57;3.73;;;3.43;;
9968;SDS011;5025;48.890;9.278;2022-10-20T09:46:24;3.37;;;3.17;;
9968;SDS011;5025;48.890;9.278;2022-10-20T09:48:52;3.10;;;2.90;;
9968;SDS011;5025;48.890;9.278;2022-10-20T09:51:23;3.10;;;2.90;;
9968;SDS011;5025;48.890;9.278;2022-10-20T09:53:57;3.33;;;3.03;;
9968;SDS011;5025;48.890;9.278;2022-10-20T09:56:29;3.13;;;2.90;;
9968;SDS011;5025;48.890;9.278;2022-10-20T09:58:58;3.27;;;3.07;;
9968;SDS011;5025;48.890;9.278;2022-10-20T10:01:25;2.87;;;2.67;;
9968;SDS011;5025;48.890;9.278;2022-10-20T10:03:51;3.90;;;2.90;;
9968;SDS011;5025;48.890;9.278;2022-10-20T10:09:03;3.40;;;3.20;;
9968;SDS011;5025;48.890;9.278;2022-10-20T10:12:24;3.00;;;2.80;;
9968;SDS011;5025;48.890;9.278;2022-10-20T10:14:53;3.20;;;3.00;;
9968;SDS011;5025;48.890;9.278;2022-10-20T10:20:00;3.23;;;3.03;;
9968;SDS011;5025;48.890;9.278;2022-10-20T10:22:26;3.20;;;2.90;;
9968;SDS011;5025;48.890;9.278;2022-10-20T10:24:53;3.27;;;3.07;;
9968;SDS011;5025;48.890;9.278;2022-10-20T10:27:29;2.63;;;2.53;;
9968;SDS011;5025;48.890;9.278;2022-10-20T10:32:48;2.83;;;2.60;;
9968;SDS011;5025;48.890;9.278;2022-10-20T10:37:53;2.70;;;2.50;;
9968;SDS011;5025;48.890;9.278;2022-10-20T10:40:21;3.13;;;2.90;;
9968;SDS011;5025;48.890;9.278;2022-10-20T10:45:50;2.93;;;2.63;;
9968;SDS011;5025;48.890;9.278;2022-10-20T10:48:33;3.50;;;3.10;;
9968;SDS011;5025;48.890;9.278;2022-10-20T10:56:53;3.10;;;3.00;;
9968;SDS011;5025;48.890;9.278;2022-10-20T10:59:34;2.87;;;2.77;;
9968;SDS011;5025;48.890;9.278;2022-10-20T11:05:23;3.47;;;2.97;;
9968;SDS011;5025;48.890;9.278;2022-10-20T11:08:07;2.83;;;2.73;;
9968;SDS011;5025;48.890;9.278;2022-10-20T11:10:57;3.40;;;3.20;;
9968;SDS011;5025;48.890;9.278;2022-10-20T11:27:23;2.60;;;2.50;;
9968;SDS011;5025;48.890;9.278;2022-10-20T11:35:27;2.90;;;2.70;;
9968;SDS011;5025;48.890;9.278;2022-10-20T11:38:10;2.97;;;2.77;;
9968;SDS011;5025;48.890;9.278;2022-10-20T11:40:40;2.80;;;2.60;;
9968;SDS011;5025;48.890;9.278;2022-10-20T11:43:31;3.00;;;2.80;;
9968;SDS011;5025;48.890;9.278;2022-10-20T11:46:05;2.60;;;2.50;;
9968;SDS011;5025;48.890;9.278;2022-10-20T11:48:38;2.80;;;2.70;;
9968;SDS011;5025;48.890;9.278;2022-10-20T11:56:55;3.53;;;3.23;;
9968;SDS011;5025;48.890;9.278;2022-10-20T12:02:17;2.70;;;2.60;;
9968;SDS011;5025;48.890;9.278;2022-10-20T12:07:53;3.10;;;2.90;;
9968;SDS011;5025;48.890;9.278;2022-10-20T12:10:40;3.27;;;3.07;;
9968;SDS011;5025;48.890;9.278;2022-10-20T12:13:18;2.80;;;2.70;;
9968;SDS011;5025;48.890;9.278;2022-10-20T12:15:46;3.30;;;3.10;;
9968;SDS011;5025;48.890;9.278;2022-10-20T12:18:21;2.90;;;2.70;;
9968;SDS011;5025;48.890;9.278;2022-10-20T12:20:50;3.10;;;2.87;;
9968;SDS011;5025;48.890;9.278;2022-10-20T12:28:57;3.07;;;2.87;;
9968;SDS011;5025;48.890;9.278;2022-10-20T12:31:24;3.10;;;2.90;;
9968;SDS011;5025;48.890;9.278;2022-10-20T12:34:28;3.10;;;2.90;;
9968;SDS011;5025;48.890;9.278;2022-10-20T12:37:07;3.00;;;2.80;;
9968;SDS011;5025;48.890;9.278;2022-10-20T12:39:38;2.70;;;2.60;;
9968;SDS011;5025;48.890;9.278;2022-10-20T12:42:04;2.90;;;2.80;;
9968;SDS011;5025;48.890;9.278;2022-10-20T12:44:31;2.90;;;2.70;;
9968;SDS011;5025;48.890;9.278;2022-10-20T12:47:06;2.90;;;2.70;;
9968;SDS011;5025;48.890;9.278;2022-10-20T12:49:33;2.60;;;2.50;;
9968;SDS011;5025;48.890;9.278;2022-10-20T12:52:02;2.50;;;2.40;;
9968;SDS011;5025;48.890;9.278;2022-10-20T12:54:32;2.70;;;2.60;;
9968;SDS011;5025;48.890;9.278;2022-10-20T12:57:03;2.67;;;2.57;;
9968;SDS011;5025;48.890;9.278;2022-10-20T12:59:47;3.10;;;2.90;;
9968;SDS011;5025;48.890;9.278;2022-10-20T13:10:35;2.70;;;2.50;;
9968;SDS011;5025;48.890;9.278;2022-10-20T13:18:03;2.90;;;2.70;;
9968;SDS011;5025;48.890;9.278;2022-10-20T13:20:53;2.60;;;2.50;;
9968;SDS011;5025;48.890;9.278;2022-10-20T13:23:30;3.07;;;2.50;;
9968;SDS011;5025;48.890;9.278;2022-10-20T13:25:58;2.20;;;2.10;;
9968;SDS011;5025;48.890;9.278;2022-10-20T13:28:28;3.13;;;2.93;;
9968;SDS011;5025;48.890;9.278;2022-10-20T13:33:45;2.57;;;2.47;;
9968;SDS011;5025;48.890;9.278;2022-10-20T13:48:14;3.10;;;2.90;;
9968;SDS011;5025;48.890;9.278;2022-10-20T13:50:52;3.10;;;3.00;;
9968;SDS011;5025;48.890;9.278;2022-10-20T13:55:53;3.40;;;3.20;;
9968;SDS011;5025;48.890;9.278;2022-10-20T13:58:25;3.27;;;3.17;;
9968;SDS011;5025;48.890;9.278;2022-10-20T14:00:56;3.40;;;3.10;;
9968;SDS011;5025;48.890;9.278;2022-10-20T14:03:22;3.37;;;3.17;;
9968;SDS011;5025;48.890;9.278;2022-10-20T14:05:47;3.80;;;3.53;;
9968;SDS011;5025;48.890;9.278;2022-10-20T14:08:13;4.27;;;3.97;;
9968;SDS011;5025;48.890;9.278;2022-10-20T14:10:50;4.70;;;4.40;;
9968;SDS011;5025;48.890;9.278;2022-10-20T14:13:20;4.30;;;4.00;;
9968;SDS011;5025;48.890;9.278;2022-10-20T14:15:55;3.80;;;3.60;;
9968;SDS011;5025;48.890;9.278;2022-10-20T14:20:56;4.13;;;3.83;;
9968;SDS011;5025;48.890;9.278;2022-10-20T14:23:27;4.23;;;3.93;;
9968;SDS011;5025;48.890;9.278;2022-10-20T14:25:59;5.47;;;4.97;;
9968;SDS011;5025;48.890;9.278;2022-10-20T14:28:26;5.40;;;5.03;;
9968;SDS011;5025;48.890;9.278;2022-10-20T14:30:56;4.87;;;4.57;;
9968;SDS011;5025;48.890;9.278;2022-10-20T14:33:23;4.60;;;4.30;;
9968;SDS011;5025;48.890;9.278;2022-10-20T14:35:50;4.47;;;4.17;;
9968;SDS011;5025;48.890;9.278;2022-10-20T14:38:20;4.70;;;4.40;;
9968;SDS011;5025;48.890;9.278;2022-10-20T14:40:52;4.33;;;4.03;;
9968;SDS011;5025;48.890;9.278;2022-10-20T14:43:23;4.10;;;3.90;;
9968;SDS011;5025;48.890;9.278;2022-10-20T14:46:12;4.40;;;4.10;;
9968;SDS011;5025;48.890;9.278;2022-10-20T14:48:48;3.70;;;3.50;;
9968;SDS011;5025;48.890;9.278;2022-10-20T14:54:15;3.83;;;3.60;;
9968;SDS011;5025;48.890;9.278;2022-10-20T14:59:11;3.30;;;3.20;;
9968;SDS011;5025;48.890;9.278;2022-10-20T15:01:38;3.17;;;3.07;;
9968;SDS011;5025;48.890;9.278;2022-10-20T15:06:29;3.20;;;3.10;;
9968;SDS011;5025;48.890;9.278;2022-10-20T15:08:54;4.40;;;4.00;;
9968;SDS011;5025;48.890;9.278;2022-10-20T15:11:22;4.57;;;4.27;;
9968;SDS011;5025;48.890;9.278;2022-10-20T15:13:50;4.57;;;4.17;;
9968;SDS011;5025;48.890;9.278;2022-10-20T15:16:34;4.10;;;3.80;;
9968;SDS011;5025;48.890;9.278;2022-10-20T15:21:37;4.30;;;4.00;;
9968;SDS011;5025;48.890;9.278;2022-10-20T15:24:02;4.27;;;3.97;;
9968;SDS011;5025;48.890;9.278;2022-10-20T15:26:28;3.57;;;3.37;;
9968;SDS011;5025;48.890;9.278;2022-10-20T15:28:53;3.70;;;3.50;;
9968;SDS011;5025;48.890;9.278;2022-10-20T15:33:49;4.50;;;4.20;;
9968;SDS011;5025;48.890;9.278;2022-10-20T15:38:45;3.87;;;3.67;;
9968;SDS011;5025;48.890;9.278;2022-10-20T15:41:15;4.10;;;3.80;;
9968;SDS011;5025;48.890;9.278;2022-10-20T15:43:51;4.17;;;3.87;;
9968;SDS011;5025;48.890;9.278;2022-10-20T15:46:17;3.70;;;3.50;;
9968;SDS011;5025;48.890;9.278;2022-10-20T15:48:43;3.90;;;3.70;;
9968;SDS011;5025;48.890;9.278;2022-10-20T15:51:14;3.87;;;3.50;;
9968;SDS011;5025;48.890;9.278;2022-10-20T15:53:40;4.00;;;3.80;;
9968;SDS011;5025;48.890;9.278;2022-10-20T15:56:05;11.80;;;11.03;;
9968;SDS011;5025;48.890;9.278;2022-10-20T15:58:31;9.53;;;8.87;;
9968;SDS011;5025;48.890;9.278;2022-10-20T16:00:57;7.90;;;7.40;;
9968;SDS011;5025;48.890;9.278;2022-10-20T16:03:22;6.70;;;6.30;;
9968;SDS011;5025;48.890;9.278;2022-10-20T16:05:48;5.53;;;5.13;;
9968;SDS011;5025;48.890;9.278;2022-10-20T16:08:13;4.93;;;4.57;;
9968;SDS011;5025;48.890;9.278;2022-10-20T16:10:38;4.87;;;4.57;;
9968;SDS011;5025;48.890;9.278;2022-10-20T16:13:05;5.00;;;4.70;;
9968;SDS011;5025;48.890;9.278;2022-10-20T16:15:30;4.87;;;4.57;;
9968;SDS011;5025;48.890;9.278;2022-10-20T16:17:56;4.40;;;4.20;;
9968;SDS011;5025;48.890;9.278;2022-10-20T16:20:21;4.47;;;4.27;;
9968;SDS011;5025;48.890;9.278;2022-10-20T16:22:46;4.77;;;4.47;;
9968;SDS011;5025;48.890;9.278;2022-10-20T16:25:12;4.67;;;4.27;;
9968;SDS011;5025;48.890;9.278;2022-10-20T16:27:37;5.10;;;4.80;;
9968;SDS011;5025;48.890;9.278;2022-10-20T16:30:03;4.90;;;4.60;;
9968;SDS011;5025;48.890;9.278;2022-10-20T16:32:30;6.70;;;6.20;;
9968;SDS011;5025;48.890;9.278;2022-10-20T16:34:55;6.37;;;5.83;;
9968;SDS011;5025;48.890;9.278;2022-10-20T16:37:22;6.80;;;6.30;;
9968;SDS011;5025;48.890;9.278;2022-10-20T16:39:47;7.00;;;6.47;;
9968;SDS011;5025;48.890;9.278;2022-10-20T16:42:13;6.80;;;6.20;;
9968;SDS011;5025;48.890;9.278;2022-10-20T16:44:38;6.40;;;6.00;;
9968;SDS011;5025;48.890;9.278;2022-10-20T16:47:04;6.70;;;6.20;;
9968;SDS011;5025;48.890;9.278;2022-10-20T16:49:29;6.10;;;5.70;;
9968;SDS011;5025;48.890;9.278;2022-10-20T16:51:54;5.97;;;5.47;;
9968;SDS011;5025;48.890;9.278;2022-10-20T16:54:20;5.40;;;5.10;;
9968;SDS011;5025;48.890;9.278;2022-10-20T16:56:45;5.57;;;5.17;;
9968;SDS011;5025;48.890;9.278;2022-10-20T16:59:10;5.70;;;5.30;;
9968;SDS011;5025;48.890;9.278;2022-10-20T17:01:36;5.83;;;5.40;;
9968;SDS011;5025;48.890;9.278;2022-10-20T17:04:01;6.37;;;5.30;;
9968;SDS011;5025;48.890;9.278;2022-10-20T17:06:27;5.73;;;5.23;;
9968;SDS011;5025;48.890;9.278;2022-10-20T17:08:53;5.30;;;4.90;;
9968;SDS011;5025;48.890;9.278;2022-10-20T17:11:19;5.73;;;5.33;;
9968;SDS011;5025;48.890;9.278;2022-10-20T17:13:46;5.60;;;5.20;;
9968;SDS011;5025;48.890;9.278;2022-10-20T17:16:13;5.50;;;5.00;;
9968;SDS011;5025;48.890;9.278;2022-10-20T17:18:43;5.30;;;4.90;;
9968;SDS011;5025;48.890;9.278;2022-10-20T17:21:09;5.60;;;5.10;;
9968;SDS011;5025;48.890;9.278;2022-10-20T17:23:36;5.10;;;4.80;;
9968;SDS011;5025;48.890;9.278;2022-10-20T17:26:03;5.90;;;5.40;;
9968;SDS011;5025;48.890;9.278;2022-10-20T17:28:31;5.60;;;5.20;;
9968;SDS011;5025;48.890;9.278;2022-10-20T17:30:57;5.97;;;5.57;;
9968;SDS011;5025;48.890;9.278;2022-10-20T17:33:27;6.83;;;6.30;;